Time,TemperatureF,DewpointF,PressureIn,WindDirection,WindDirectionDegrees,WindSpeedMPH,WindSpeedGustMPH,Humidity,HourlyPrecipIn,Conditions,Clouds,dailyrainin,SoftwareType,DateUTC
2013-02-06 00:02:00,34.0,32.0,29.94,North,0,0.0,0.0,92,0.00,,,0.00,,2013-02-06 05:02:00,
2013-02-06 00:12:00,34.0,32.0,29.94,North,0,0.0,0.0,92,0.00,,,0.00,,2013-02-06 05:12:00,
2013-02-06 00:22:00,33.0,31.0,29.94,North,0,0.0,0.0,93,0.00,,,0.00,,2013-02-06 05:22:00,
2013-02-06 00:32:00,33.0,31.0,29.94,North,0,0.0,0.0,93,0.00,,,0.00,,2013-02-06 05:32:00,
2013-02-06 00:42:00,33.0,31.0,29.94,North,0,0.0,0.0,93,0.00,,,0.00,,2013-02-06 05:42:00,
2013-02-06 00:53:00,33.0,31.0,29.95,North,0,0.0,0.0,93,0.00,,,0.00,,2013-02-06 05:53:00,
2013-02-06 01:01:00,33.0,31.0,29.95,North,0,0.0,0.0,93,0.00,,,0.00,,2013-02-06 06:01:00,
2013-02-06 01:11:00,33.0,31.0,29.95,North,0,0.0,0.0,93,0.00,,,0.00,,2013-02-06 06:11:00,
2013-02-06 01:22:00,32.0,30.0,29.95,North,0,0.0,0.0,94,0.00,,,0.00,,2013-02-06 06:22:00,
2013-02-06 01:32:00,32.0,30.0,29.95,North,0,0.0,0.0,94,0.00,,,0.00,,2013-02-06 06:32:00,
2013-02-06 01:42:00,32.0,30.0,29.95,North,0,0.0,0.0,94,0.00,,,0.00,,2013-02-06 06:42:00,
2013-02-06 01:52:00,32.0,30.0,29.95,North,0,0.0,0.0,94,0.00,,,0.00,,2013-02-06 06:52:00,
2013-02-06 02:01:00,31.0,29.0,29.95,North,0,0.0,0.0,94,0.00,,,0.00,,2013-02-06 07:01:00,
2013-02-06 02:11:00,31.0,29.0,29.95,North,0,0.0,0.0,94,0.00,,,0.00,,2013-02-06 07:11:00,
2013-02-06 02:22:00,31.0,29.0,29.95,North,0,0.0,0.0,94,0.00,,,0.00,,2013-02-06 07:22:00,
2013-02-06 02:32:00,30.0,28.0,29.95,North,0,0.0,0.0,94,0.00,,,0.00,,2013-02-06 07:32:00,
2013-02-06 02:42:00,30.0,28.0,29.95,North,0,0.0,0.0,94,0.00,,,0.00,,2013-02-06 07:42:00,
2013-02-06 02:52:00,30.0,28.0,29.95,North,0,0.0,0.0,94,0.00,,,0.00,,2013-02-06 07:52:00,
2013-02-06 03:01:00,30.0,29.0,29.96,North,0,0.0,0.0,95,0.00,,,0.00,,2013-02-06 08:01:00,
2013-02-06 03:11:00,30.0,29.0,29.96,North,0,0.0,0.0,95,0.00,,,0.00,,2013-02-06 08:11:00,
2013-02-06 03:21:00,30.0,29.0,29.96,North,0,0.0,0.0,95,0.00,,,0.00,,2013-02-06 08:21:00,
2013-02-06 03:32:00,30.0,29.0,29.96,North,0,0.0,0.0,95,0.00,,,0.00,,2013-02-06 08:32:00,
2013-02-06 03:42:00,30.0,29.0,29.96,North,0,0.0,0.0,95,0.00,,,0.00,,2013-02-06 08:42:00,
2013-02-06 03:53:00,30.0,29.0,29.96,North,0,0.0,0.0,95,0.00,,,0.00,,2013-02-06 08:53:00,
2013-02-06 04:01:00,29.0,28.0,29.96,North,0,0.0,0.0,95,0.00,,,0.00,,2013-02-06 09:01:00,
2013-02-06 04:11:00,29.0,28.0,29.96,North,0,0.0,0.0,95,0.00,,,0.00,,2013-02-06 09:11:00,
2013-02-06 04:22:00,29.0,28.0,29.97,North,0,0.0,0.0,95,0.00,,,0.00,,2013-02-06 09:22:00,
2013-02-06 04:32:00,29.0,28.0,29.97,North,0,0.0,0.0,95,0.00,,,0.00,,2013-02-06 09:32:00,
2013-02-06 04:42:00,29.0,28.0,29.97,North,0,0.0,0.0,95,0.00,,,0.00,,2013-02-06 09:42:00,
2013-02-06 04:52:00,29.0,28.0,29.97,North,0,0.0,0.0,95,0.00,,,0.00,,2013-02-06 09:52:00,
2013-02-06 05:01:00,29.0,28.0,29.98,North,0,0.0,0.0,95,0.00,,,0.00,,2013-02-06 10:01:00,
2013-02-06 05:11:00,29.0,28.0,29.98,North,0,0.0,0.0,95,0.00,,,0.00,,2013-02-06 10:11:00,
2013-02-06 05:22:00,29.0,28.0,29.98,North,0,0.0,0.0,95,0.00,,,0.00,,2013-02-06 10:22:00,
2013-02-06 05:32:00,29.0,28.0,30.00,North,0,0.0,0.0,95,0.00,,,0.00,,2013-02-06 10:32:00,
2013-02-06 05:42:00,29.0,28.0,30.00,North,0,0.0,0.0,95,0.00,,,0.00,,2013-02-06 10:42:00,
2013-02-06 05:52:00,28.0,27.0,30.01,North,0,0.0,0.0,96,0.00,,,0.00,,2013-02-06 10:52:00,
2013-02-06 06:01:00,28.0,27.0,30.01,North,0,0.0,0.0,96,0.00,,,0.00,,2013-02-06 11:01:00,
2013-02-06 06:11:00,28.0,27.0,30.01,North,0,0.0,0.0,96,0.00,,,0.00,,2013-02-06 11:11:00,
2013-02-06 06:22:00,28.0,27.0,30.02,North,0,0.0,0.0,96,0.00,,,0.00,,2013-02-06 11:22:00,
2013-02-06 06:33:00,28.0,27.0,30.03,North,0,0.0,0.0,96,0.00,,,0.00,,2013-02-06 11:33:00,
2013-02-06 06:42:00,28.0,27.0,30.03,North,0,0.0,0.0,96,0.00,,,0.00,,2013-02-06 11:42:00,
2013-02-06 06:53:00,28.0,27.0,30.03,North,0,0.0,0.0,96,0.00,,,0.00,,2013-02-06 11:53:00,
2013-02-06 07:02:00,28.0,27.0,30.03,North,0,0.0,0.0,96,0.00,,,0.00,,2013-02-06 12:02:00,
2013-02-06 07:12:00,28.0,27.0,30.03,North,0,0.0,0.0,96,0.00,,,0.00,,2013-02-06 12:12:00,
2013-02-06 07:22:00,28.0,27.0,30.03,North,0,0.0,0.0,96,0.00,,,0.00,,2013-02-06 12:22:00,
2013-02-06 07:32:00,28.0,27.0,30.07,North,0,0.0,0.0,95,0.00,,,0.00,,2013-02-06 12:32:00,
2013-02-06 07:42:00,28.0,27.0,30.07,North,0,0.0,0.0,95,0.00,,,0.00,,2013-02-06 12:42:00,
2013-02-06 07:52:00,28.0,27.0,30.07,North,0,0.0,0.0,96,0.00,,,0.00,,2013-02-06 12:52:00,
2013-02-06 08:02:00,28.0,27.0,30.07,North,0,0.0,0.0,96,0.00,,,0.00,,2013-02-06 13:02:00,
2013-02-06 08:12:00,28.0,27.0,30.07,North,0,0.0,0.0,96,0.00,,,0.00,,2013-02-06 13:12:00,
2013-02-06 08:22:00,28.0,27.0,30.09,North,0,0.0,0.0,96,0.00,,,0.00,,2013-02-06 13:22:00,
2013-02-06 08:32:00,28.0,27.0,30.09,North,0,0.0,0.0,96,0.00,,,0.00,,2013-02-06 13:32:00,
2013-02-06 08:42:00,28.0,27.0,30.09,North,0,0.0,0.0,96,0.00,,,0.00,,2013-02-06 13:42:00,
2013-02-06 08:52:00,30.0,29.0,30.10,North,0,0.0,0.0,96,0.00,,,0.00,,2013-02-06 13:52:00,
2013-02-06 09:02:00,32.0,31.0,30.11,North,0,0.0,0.0,97,0.00,,,0.00,,2013-02-06 14:02:00,
2013-02-06 09:11:00,35.0,34.0,30.11,North,0,0.0,0.0,97,0.00,,,0.00,,2013-02-06 14:11:00,
2013-02-06 09:22:00,35.0,34.0,30.11,North,0,0.0,0.0,97,0.00,,,0.00,,2013-02-06 14:22:00,
2013-02-06 09:32:00,35.0,34.0,30.11,North,0,0.0,0.0,97,0.00,,,0.00,,2013-02-06 14:32:00,
2013-02-06 09:42:00,35.0,34.0,30.11,North,0,0.0,0.0,97,0.00,,,0.00,,2013-02-06 14:42:00,
2013-02-06 09:52:00,35.0,34.0,30.11,North,0,0.0,0.0,97,0.00,,,0.00,,2013-02-06 14:52:00,
2013-02-06 10:02:00,47.0,41.0,30.12,North,0,0.0,3.0,78,0.00,,,0.00,,2013-02-06 15:02:00,
2013-02-06 10:11:00,50.0,39.0,30.12,North,0,0.0,1.0,67,0.00,,,0.00,,2013-02-06 15:11:00,
2013-02-06 10:21:00,50.0,39.0,30.12,North,0,0.0,1.0,67,0.00,,,0.00,,2013-02-06 15:21:00,
2013-02-06 10:32:00,53.0,38.0,30.12,North,0,0.0,3.0,57,0.00,,,0.00,,2013-02-06 15:32:00,
2013-02-06 10:42:00,55.0,35.0,30.12,NW,315,2.0,9.0,46,0.00,,,0.00,,2013-02-06 15:42:00,
2013-02-06 10:52:00,55.0,35.0,30.12,NW,315,2.0,9.0,46,0.00,,,0.00,,2013-02-06 15:52:00,
2013-02-06 11:01:00,55.0,35.0,30.12,NW,315,2.0,9.0,46,0.00,,,0.00,,2013-02-06 16:01:00,
2013-02-06 11:11:00,55.0,35.0,30.12,NW,315,2.0,9.0,46,0.00,,,0.00,,2013-02-06 16:11:00,
2013-02-06 11:21:00,55.0,35.0,30.12,NW,315,2.0,9.0,46,0.00,,,0.00,,2013-02-06 16:21:00,
2013-02-06 11:32:00,57.0,32.0,30.13,North,354,3.0,8.0,39,0.00,,,0.00,,2013-02-06 16:32:00,
2013-02-06 11:42:00,57.0,32.0,30.13,North,354,3.0,8.0,39,0.00,,,0.00,,2013-02-06 16:42:00,
2013-02-06 11:52:00,58.0,33.0,30.13,NNE,22,1.0,9.0,38,0.00,,,0.00,,2013-02-06 16:52:00,
2013-02-06 12:02:00,58.0,33.0,30.13,NNE,22,1.0,9.0,38,0.00,,,0.00,,2013-02-06 17:02:00,
2013-02-06 12:12:00,58.0,31.0,30.12,NNW,328,3.0,6.0,35,0.00,,,0.00,,2013-02-06 17:12:00,
2013-02-06 12:22:00,58.0,31.0,30.12,NNW,328,3.0,6.0,35,0.00,,,0.00,,2013-02-06 17:22:00,
2013-02-06 12:32:00,59.0,30.0,30.12,NNW,331,3.0,8.0,33,0.00,,,0.00,,2013-02-06 17:32:00,
2013-02-06 12:42:00,59.0,29.0,30.12,NW,313,2.0,9.0,32,0.00,,,0.00,,2013-02-06 17:42:00,
2013-02-06 12:52:00,59.0,29.0,30.12,NW,313,2.0,9.0,32,0.00,,,0.00,,2013-02-06 17:52:00,
2013-02-06 13:02:00,59.0,30.0,30.11,NNW,336,1.0,8.0,33,0.00,,,0.00,,2013-02-06 18:02:00,
2013-02-06 13:12:00,59.0,30.0,30.11,NNW,336,1.0,8.0,33,0.00,,,0.00,,2013-02-06 18:12:00,
2013-02-06 13:23:00,59.0,30.0,30.11,NNW,336,1.0,8.0,33,0.00,,,0.00,,2013-02-06 18:23:00,
2013-02-06 13:32:00,59.0,30.0,30.11,NNW,336,1.0,8.0,33,0.00,,,0.00,,2013-02-06 18:32:00,
2013-02-06 13:42:00,59.0,30.0,30.11,NNW,336,1.0,8.0,33,0.00,,,0.00,,2013-02-06 18:42:00,
2013-02-06 13:52:00,61.0,27.0,30.10,West,281,4.0,11.0,27,0.00,,,0.00,,2013-02-06 18:52:00,
2013-02-06 14:02:00,61.0,27.0,30.10,NNW,346,2.0,7.0,27,0.00,,,0.00,,2013-02-06 19:02:00,
2013-02-06 14:11:00,61.0,27.0,30.10,NNW,346,2.0,7.0,27,0.00,,,0.00,,2013-02-06 19:11:00,
2013-02-06 14:21:00,61.0,27.0,30.09,NW,306,2.0,8.0,27,0.00,,,0.00,,2013-02-06 19:21:00,
2013-02-06 14:32:00,61.0,27.0,30.09,WSW,248,4.0,8.0,27,0.00,,,0.00,,2013-02-06 19:32:00,
2013-02-06 14:42:00,61.0,27.0,30.09,WSW,248,4.0,8.0,27,0.00,,,0.00,,2013-02-06 19:42:00,
2013-02-06 14:52:00,61.0,27.0,30.09,NW,314,1.0,6.0,27,0.00,,,0.00,,2013-02-06 19:52:00,
2013-02-06 15:01:00,61.0,26.0,30.09,North,0,0.0,6.0,26,0.00,,,0.00,,2013-02-06 20:01:00,
2013-02-06 15:11:00,61.0,25.0,30.10,North,0,0.0,4.0,25,0.00,,,0.00,,2013-02-06 20:11:00,
2013-02-06 15:21:00,61.0,25.0,30.10,North,0,0.0,4.0,25,0.00,,,0.00,,2013-02-06 20:21:00,
2013-02-06 15:32:00,61.0,25.0,30.10,North,0,0.0,4.0,25,0.00,,,0.00,,2013-02-06 20:32:00,
2013-02-06 15:42:00,61.0,25.0,30.10,North,0,0.0,4.0,25,0.00,,,0.00,,2013-02-06 20:42:00,
2013-02-06 15:52:00,61.0,26.0,30.10,North,5,1.0,7.0,26,0.00,,,0.00,,2013-02-06 20:52:00,
2013-02-06 16:02:00,60.0,27.0,30.10,NNW,334,1.0,5.0,28,0.00,,,0.00,,2013-02-06 21:02:00,
2013-02-06 16:11:00,60.0,27.0,30.10,NNW,334,1.0,5.0,28,0.00,,,0.00,,2013-02-06 21:11:00,
2013-02-06 16:21:00,60.0,26.0,30.10,North,0,0.0,6.0,27,0.00,,,0.00,,2013-02-06 21:21:00,
2013-02-06 16:32:00,59.0,25.0,30.11,North,0,0.0,4.0,27,0.00,,,0.00,,2013-02-06 21:32:00,
2013-02-06 16:42:00,59.0,25.0,30.11,North,0,0.0,4.0,27,0.00,,,0.00,,2013-02-06 21:42:00,
2013-02-06 16:51:00,59.0,25.0,30.11,North,0,0.0,4.0,27,0.00,,,0.00,,2013-02-06 21:51:00,
2013-02-06 17:01:00,59.0,25.0,30.11,North,0,0.0,4.0,27,0.00,,,0.00,,2013-02-06 22:01:00,
2013-02-06 17:22:00,58.0,26.0,30.12,North,0,0.0,3.0,29,0.00,,,0.00,,2013-02-06 22:22:00,
2013-02-06 17:32:00,56.0,29.0,30.13,North,0,0.0,0.0,35,0.00,,,0.00,,2013-02-06 22:32:00,
2013-02-06 17:42:00,56.0,29.0,30.13,North,0,0.0,0.0,35,0.00,,,0.00,,2013-02-06 22:42:00,
2013-02-06 17:52:00,56.0,29.0,30.13,North,0,0.0,0.0,35,0.00,,,0.00,,2013-02-06 22:52:00,
2013-02-06 18:01:00,56.0,29.0,30.13,North,0,0.0,0.0,35,0.00,,,0.00,,2013-02-06 23:01:00,
2013-02-06 18:11:00,56.0,29.0,30.13,North,0,0.0,0.0,35,0.00,,,0.00,,2013-02-06 23:11:00,
2013-02-06 18:21:00,51.0,31.0,30.15,North,0,0.0,0.0,46,0.00,,,0.00,,2013-02-06 23:21:00,
2013-02-06 18:32:00,51.0,31.0,30.15,North,0,0.0,0.0,46,0.00,,,0.00,,2013-02-06 23:32:00,
2013-02-06 18:42:00,51.0,31.0,30.15,North,0,0.0,0.0,46,0.00,,,0.00,,2013-02-06 23:42:00,
2013-02-06 18:52:00,46.0,32.0,30.17,North,0,0.0,0.0,59,0.00,,,0.00,,2013-02-06 23:52:00,
2013-02-06 19:11:00,46.0,32.0,30.17,North,0,0.0,0.0,59,0.00,,,0.00,,2013-02-07 00:11:00,
2013-02-06 19:21:00,46.0,32.0,30.17,North,0,0.0,0.0,59,0.00,,,0.00,,2013-02-07 00:21:00,
2013-02-06 19:32:00,42.0,32.0,30.18,North,0,0.0,0.0,68,0.00,,,0.00,,2013-02-07 00:32:00,
2013-02-06 19:42:00,41.0,32.0,30.19,North,0,0.0,0.0,70,0.00,,,0.00,,2013-02-07 00:42:00,
2013-02-06 19:52:00,41.0,32.0,30.19,North,0,0.0,0.0,70,0.00,,,0.00,,2013-02-07 00:52:00,
2013-02-06 20:11:00,41.0,32.0,30.19,North,0,0.0,0.0,70,0.00,,,0.00,,2013-02-07 01:11:00,
2013-02-06 20:21:00,39.0,30.0,30.20,North,0,0.0,0.0,71,0.00,,,0.00,,2013-02-07 01:21:00,
2013-02-06 20:32:00,39.0,31.0,30.21,North,0,0.0,0.0,73,0.00,,,0.00,,2013-02-07 01:32:00,
2013-02-06 20:42:00,39.0,31.0,30.21,North,0,0.0,0.0,73,0.00,,,0.00,,2013-02-07 01:42:00,
2013-02-06 20:52:00,38.0,30.0,30.21,North,0,0.0,0.0,74,0.00,,,0.00,,2013-02-07 01:52:00,
2013-02-06 21:01:00,37.0,31.0,30.22,North,0,0.0,0.0,78,0.00,,,0.00,,2013-02-07 02:01:00,
2013-02-06 21:21:00,36.0,30.0,30.23,North,0,0.0,0.0,79,0.00,,,0.00,,2013-02-07 02:21:00,
2013-02-06 21:32:00,36.0,30.0,30.22,North,0,0.0,0.0,79,0.00,,,0.00,,2013-02-07 02:32:00,
2013-02-06 21:41:00,36.0,30.0,30.22,North,0,0.0,0.0,79,0.00,,,0.00,,2013-02-07 02:41:00,
2013-02-06 21:52:00,36.0,30.0,30.22,North,0,0.0,0.0,79,0.00,,,0.00,,2013-02-07 02:52:00,
2013-02-06 22:02:00,35.0,30.0,30.23,North,0,0.0,0.0,81,0.00,,,0.00,,2013-02-07 03:02:00,
2013-02-06 22:11:00,34.0,29.0,30.22,North,0,0.0,0.0,83,0.00,,,0.00,,2013-02-07 03:11:00,
2013-02-06 22:21:00,34.0,29.0,30.22,North,0,0.0,0.0,83,0.00,,,0.00,,2013-02-07 03:21:00,
2013-02-06 22:32:00,34.0,29.0,30.21,North,0,0.0,0.0,83,0.00,,,0.00,,2013-02-07 03:32:00,
2013-02-06 22:52:00,34.0,29.0,30.20,North,0,0.0,0.0,83,0.00,,,0.00,,2013-02-07 03:52:00,
2013-02-06 23:01:00,34.0,29.0,30.20,North,0,0.0,0.0,83,0.00,,,0.00,,2013-02-07 04:01:00,
2013-02-06 23:11:00,34.0,29.0,30.20,North,0,0.0,0.0,83,0.00,,,0.00,,2013-02-07 04:11:00,
2013-02-06 23:22:00,34.0,29.0,30.22,North,0,0.0,0.0,81,0.00,,,0.00,,2013-02-07 04:22:00,
2013-02-06 23:32:00,36.0,30.0,30.23,North,0,0.0,1.0,80,0.00,,,0.00,,2013-02-07 04:32:00,
2013-02-06 23:42:00,36.0,30.0,30.23,North,0,0.0,1.0,80,0.00,,,0.00,,2013-02-07 04:42:00,
2013-02-06 23:53:00,38.0,32.0,30.23,North,0,0.0,4.0,78,0.00,,,0.00,,2013-02-07 04:53:00,